sensor_id;sensor_type;location;lat;lon;timestamp;P1;durP1;ratioP1;P2;durP2;ratioP2
51664;SDS011;37751;52.408;12.536;2022-12-18T00:01:35;65.80;;;24.10;;
51664;SDS011;37751;52.408;12.536;2022-12-18T00:04:04;63.47;;;24.27;;
51664;SDS011;37751;52.408;12.536;2022-12-18T00:06:34;69.30;;;25.43;;
51664;SDS011;37751;52.408;12.536;2022-12-18T00:09:02;63.37;;;24.43;;
51664;SDS011;37751;52.408;12.536;2022-12-18T00:11:31;65.83;;;24.10;;
51664;SDS011;37751;52.408;12.536;2022-12-18T00:14:00;67.80;;;24.20;;
51664;SDS011;37751;52.408;12.536;2022-12-18T00:16:28;66.80;;;24.47;;
51664;SDS011;37751;52.408;12.536;2022-12-18T00:19:00;70.67;;;25.10;;
51664;SDS011;37751;52.408;12.536;2022-12-18T00:21:28;67.63;;;22.67;;
51664;SDS011;37751;52.408;12.536;2022-12-18T00:23:56;65.27;;;24.93;;
51664;SDS011;37751;52.408;12.536;2022-12-18T00:26:29;65.27;;;24.40;;
51664;SDS011;37751;52.408;12.536;2022-12-18T00:29:01;75.70;;;26.00;;
51664;SDS011;37751;52.408;12.536;2022-12-18T00:31:32;62.73;;;24.37;;
51664;SDS011;37751;52.408;12.536;2022-12-18T00:34:00;65.63;;;23.17;;
51664;SDS011;37751;52.408;12.536;2022-12-18T00:36:28;69.50;;;22.53;;
51664;SDS011;37751;52.408;12.536;2022-12-18T00:38:58;67.83;;;25.07;;
51664;SDS011;37751;52.408;12.536;2022-12-18T00:41:27;68.73;;;24.60;;
51664;SDS011;37751;52.408;12.536;2022-12-18T00:44:14;70.07;;;24.93;;
51664;SDS011;37751;52.408;12.536;2022-12-18T00:46:44;71.67;;;23.83;;
51664;SDS011;37751;52.408;12.536;2022-12-18T00:49:12;72.37;;;23.70;;
51664;SDS011;37751;52.408;12.536;2022-12-18T00:51:40;67.23;;;24.63;;
51664;SDS011;37751;52.408;12.536;2022-12-18T00:54:08;69.60;;;24.17;;
51664;SDS011;37751;52.408;12.536;2022-12-18T00:56:35;65.83;;;25.07;;
51664;SDS011;37751;52.408;12.536;2022-12-18T00:59:14;74.97;;;26.30;;
51664;SDS011;37751;52.408;12.536;2022-12-18T01:01:41;64.73;;;24.87;;
51664;SDS011;37751;52.408;12.536;2022-12-18T01:04:09;75.07;;;24.57;;
51664;SDS011;37751;52.408;12.536;2022-12-18T01:06:36;62.07;;;23.70;;
51664;SDS011;37751;52.408;12.536;2022-12-18T01:09:03;71.67;;;25.17;;
51664;SDS011;37751;52.408;12.536;2022-12-18T01:11:30;64.17;;;23.03;;
51664;SDS011;37751;52.408;12.536;2022-12-18T01:13:57;72.63;;;24.87;;
51664;SDS011;37751;52.408;12.536;2022-12-18T01:16:23;68.23;;;24.50;;
51664;SDS011;37751;52.408;12.536;2022-12-18T01:18:51;63.90;;;22.13;;
51664;SDS011;37751;52.408;12.536;2022-12-18T01:21:20;63.07;;;22.67;;
51664;SDS011;37751;52.408;12.536;2022-12-18T01:23:52;63.13;;;23.33;;
51664;SDS011;37751;52.408;12.536;2022-12-18T01:26:22;65.97;;;24.47;;
51664;SDS011;37751;52.408;12.536;2022-12-18T01:28:50;67.63;;;23.57;;
51664;SDS011;37751;52.408;12.536;2022-12-18T01:31:29;74.43;;;24.47;;
51664;SDS011;37751;52.408;12.536;2022-12-18T01:34:01;68.53;;;23.37;;
51664;SDS011;37751;52.408;12.536;2022-12-18T01:36:30;63.60;;;24.30;;
51664;SDS011;37751;52.408;12.536;2022-12-18T01:39:01;66.03;;;23.43;;
51664;SDS011;37751;52.408;12.536;2022-12-18T01:41:40;64.93;;;24.83;;
51664;SDS011;37751;52.408;12.536;2022-12-18T01:50:32;68.07;;;24.67;;
51664;SDS011;37751;52.408;12.536;2022-12-18T01:55:50;64.73;;;23.67;;
51664;SDS011;37751;52.408;12.536;2022-12-18T02:01:24;65.93;;;23.27;;
51664;SDS011;37751;52.408;12.536;2022-12-18T02:03:51;72.43;;;25.23;;
51664;SDS011;37751;52.408;12.536;2022-12-18T02:06:21;62.50;;;23.83;;
51664;SDS011;37751;52.408;12.536;2022-12-18T02:11:49;61.97;;;21.67;;
51664;SDS011;37751;52.408;12.536;2022-12-18T02:14:42;73.00;;;23.80;;
51664;SDS011;37751;52.408;12.536;2022-12-18T02:17:53;64.43;;;21.90;;
51664;SDS011;37751;52.408;12.536;2022-12-18T02:20:25;61.80;;;23.47;;
51664;SDS011;37751;52.408;12.536;2022-12-18T02:23:23;56.50;;;22.20;;
51664;SDS011;37751;52.408;12.536;2022-12-18T02:26:36;65.47;;;22.37;;
51664;SDS011;37751;52.408;12.536;2022-12-18T02:29:18;61.53;;;22.23;;
51664;SDS011;37751;52.408;12.536;2022-12-18T02:31:57;68.03;;;22.53;;
51664;SDS011;37751;52.408;12.536;2022-12-18T02:34:27;61.80;;;21.57;;
51664;SDS011;37751;52.408;12.536;2022-12-18T02:36:58;60.93;;;23.23;;
51664;SDS011;37751;52.408;12.536;2022-12-18T02:39:30;63.73;;;22.50;;
51664;SDS011;37751;52.408;12.536;2022-12-18T02:42:03;58.83;;;23.43;;
51664;SDS011;37751;52.408;12.536;2022-12-18T02:44:34;66.00;;;22.53;;
51664;SDS011;37751;52.408;12.536;2022-12-18T02:47:17;63.50;;;23.23;;
51664;SDS011;37751;52.408;12.536;2022-12-18T02:49:53;62.17;;;22.40;;
51664;SDS011;37751;52.408;12.536;2022-12-18T02:53:04;61.80;;;21.90;;
51664;SDS011;37751;52.408;12.536;2022-12-18T02:56:06;56.27;;;20.37;;
51664;SDS011;37751;52.408;12.536;2022-12-18T03:01:37;54.87;;;20.60;;
51664;SDS011;37751;52.408;12.536;2022-12-18T03:04:25;60.70;;;21.10;;
51664;SDS011;37751;52.408;12.536;2022-12-18T03:06:57;56.70;;;21.37;;
51664;SDS011;37751;52.408;12.536;2022-12-18T03:09:34;52.27;;;20.13;;
51664;SDS011;37751;52.408;12.536;2022-12-18T03:12:08;55.90;;;20.57;;
51664;SDS011;37751;52.408;12.536;2022-12-18T03:15:00;51.07;;;19.77;;
51664;SDS011;37751;52.408;12.536;2022-12-18T03:17:49;51.93;;;19.80;;
51664;SDS011;37751;52.408;12.536;2022-12-18T03:20:25;52.90;;;20.87;;
51664;SDS011;37751;52.408;12.536;2022-12-18T03:22:57;59.83;;;22.20;;
51664;SDS011;37751;52.408;12.536;2022-12-18T03:25:31;58.37;;;20.80;;
51664;SDS011;37751;52.408;12.536;2022-12-18T03:28:01;64.47;;;22.93;;
51664;SDS011;37751;52.408;12.536;2022-12-18T03:30:32;61.73;;;21.63;;
51664;SDS011;37751;52.408;12.536;2022-12-18T03:36:13;58.07;;;21.60;;
51664;SDS011;37751;52.408;12.536;2022-12-18T03:38:41;57.33;;;22.30;;
51664;SDS011;37751;52.408;12.536;2022-12-18T03:52:18;56.57;;;21.00;;
51664;SDS011;37751;52.408;12.536;2022-12-18T03:55:00;64.03;;;22.50;;
51664;SDS011;37751;52.408;12.536;2022-12-18T03:57:30;54.63;;;20.60;;
51664;SDS011;37751;52.408;12.536;2022-12-18T04:00:04;59.87;;;21.60;;
51664;SDS011;37751;52.408;12.536;2022-12-18T04:03:02;59.07;;;23.43;;
51664;SDS011;37751;52.408;12.536;2022-12-18T04:05:38;61.07;;;23.50;;
51664;SDS011;37751;52.408;12.536;2022-12-18T04:08:07;59.57;;;22.77;;
51664;SDS011;37751;52.408;12.536;2022-12-18T04:10:37;57.87;;;23.53;;
51664;SDS011;37751;52.408;12.536;2022-12-18T04:13:04;64.93;;;23.50;;
51664;SDS011;37751;52.408;12.536;2022-12-18T04:15:31;59.57;;;22.23;;
51664;SDS011;37751;52.408;12.536;2022-12-18T04:18:04;59.93;;;23.37;;
51664;SDS011;37751;52.408;12.536;2022-12-18T04:20:38;62.97;;;23.93;;
51664;SDS011;37751;52.408;12.536;2022-12-18T04:23:04;61.77;;;23.27;;
51664;SDS011;37751;52.408;12.536;2022-12-18T04:25:31;57.77;;;24.60;;
51664;SDS011;37751;52.408;12.536;2022-12-18T04:28:08;59.47;;;23.17;;
51664;SDS011;37751;52.408;12.536;2022-12-18T04:30:36;55.10;;;23.70;;
51664;SDS011;37751;52.408;12.536;2022-12-18T04:33:07;62.20;;;23.70;;
51664;SDS011;37751;52.408;12.536;2022-12-18T04:35:37;61.87;;;23.73;;
51664;SDS011;37751;52.408;12.536;2022-12-18T04:38:06;63.83;;;24.07;;
51664;SDS011;37751;52.408;12.536;2022-12-18T04:40:37;56.47;;;23.93;;
51664;SDS011;37751;52.408;12.536;2022-12-18T04:43:13;56.80;;;23.87;;
51664;SDS011;37751;52.408;12.536;2022-12-18T04:45:39;64.97;;;24.57;;
51664;SDS011;37751;52.408;12.536;2022-12-18T04:48:06;70.20;;;26.13;;
51664;SDS011;37751;52.408;12.536;2022-12-18T04:50:33;68.67;;;25.57;;
51664;SDS011;37751;52.408;12.536;2022-12-18T04:53:00;68.73;;;25.73;;
51664;SDS011;37751;52.408;12.536;2022-12-18T04:55:27;65.47;;;26.13;;
51664;SDS011;37751;52.408;12.536;2022-12-18T04:57:54;64.97;;;24.90;;
51664;SDS011;37751;52.408;12.536;2022-12-18T05:00:21;67.20;;;26.60;;
51664;SDS011;37751;52.408;12.536;2022-12-18T05:02:48;67.57;;;26.37;;
51664;SDS011;37751;52.408;12.536;2022-12-18T05:05:15;69.77;;;27.20;;
51664;SDS011;37751;52.408;12.536;2022-12-18T05:07:42;67.17;;;24.77;;
51664;SDS011;37751;52.408;12.536;2022-12-18T05:10:09;65.33;;;26.23;;
51664;SDS011;37751;52.408;12.536;2022-12-18T05:12:36;66.83;;;27.33;;
51664;SDS011;37751;52.408;12.536;2022-12-18T05:15:29;65.17;;;25.77;;
51664;SDS011;37751;52.408;12.536;2022-12-18T05:17:57;72.40;;;26.40;;
51664;SDS011;37751;52.408;12.536;2022-12-18T05:20:25;72.83;;;27.17;;
51664;SDS011;37751;52.408;12.536;2022-12-18T05:22:53;67.13;;;27.13;;
51664;SDS011;37751;52.408;12.536;2022-12-18T05:25:21;68.67;;;26.53;;
51664;SDS011;37751;52.408;12.536;2022-12-18T05:27:48;71.40;;;26.47;;
51664;SDS011;37751;52.408;12.536;2022-12-18T05:30:15;67.47;;;26.63;;
51664;SDS011;37751;52.408;12.536;2022-12-18T05:32:42;73.80;;;26.03;;
51664;SDS011;37751;52.408;12.536;2022-12-18T05:35:09;69.07;;;25.77;;
51664;SDS011;37751;52.408;12.536;2022-12-18T05:37:37;72.40;;;27.13;;
51664;SDS011;37751;52.408;12.536;2022-12-18T05:40:09;70.43;;;25.63;;
51664;SDS011;37751;52.408;12.536;2022-12-18T05:42:37;79.63;;;26.40;;
51664;SDS011;37751;52.408;12.536;2022-12-18T05:45:04;79.27;;;26.07;;
51664;SDS011;37751;52.408;12.536;2022-12-18T05:47:31;81.03;;;27.43;;
51664;SDS011;37751;52.408;12.536;2022-12-18T05:49:58;74.40;;;26.37;;
51664;SDS011;37751;52.408;12.536;2022-12-18T05:52:25;78.23;;;29.10;;
51664;SDS011;37751;52.408;12.536;2022-12-18T05:54:52;77.80;;;26.97;;
51664;SDS011;37751;52.408;12.536;2022-12-18T05:57:18;78.80;;;27.20;;
51664;SDS011;37751;52.408;12.536;2022-12-18T05:59:46;73.17;;;28.57;;
51664;SDS011;37751;52.408;12.536;2022-12-18T06:02:12;80.60;;;27.57;;
51664;SDS011;37751;52.408;12.536;2022-12-18T06:04:39;80.43;;;27.53;;
51664;SDS011;37751;52.408;12.536;2022-12-18T06:07:06;80.50;;;28.47;;
51664;SDS011;37751;52.408;12.536;2022-12-18T06:09:33;83.53;;;28.10;;
51664;SDS011;37751;52.408;12.536;2022-12-18T06:12:00;72.20;;;25.43;;
51664;SDS011;37751;52.408;12.536;2022-12-18T06:14:26;79.03;;;28.33;;
51664;SDS011;37751;52.408;12.536;2022-12-18T06:16:53;74.60;;;27.27;;
51664;SDS011;37751;52.408;12.536;2022-12-18T06:19:20;79.17;;;27.77;;
51664;SDS011;37751;52.408;12.536;2022-12-18T06:21:47;78.63;;;28.43;;
51664;SDS011;37751;52.408;12.536;2022-12-18T06:24:15;75.93;;;29.00;;
51664;SDS011;37751;52.408;12.536;2022-12-18T06:26:42;67.77;;;26.13;;
51664;SDS011;37751;52.408;12.536;2022-12-18T06:29:08;78.50;;;26.60;;
51664;SDS011;37751;52.408;12.536;2022-12-18T06:31:35;79.77;;;29.63;;
51664;SDS011;37751;52.408;12.536;2022-12-18T06:34:03;76.70;;;26.17;;
51664;SDS011;37751;52.408;12.536;2022-12-18T06:36:30;75.87;;;26.77;;
51664;SDS011;37751;52.408;12.536;2022-12-18T06:38:58;68.67;;;26.13;;
51664;SDS011;37751;52.408;12.536;2022-12-18T06:41:25;73.73;;;27.50;;
51664;SDS011;37751;52.408;12.536;2022-12-18T06:43:52;79.33;;;28.50;;
51664;SDS011;37751;52.408;12.536;2022-12-18T06:46:24;74.10;;;27.37;;
51664;SDS011;37751;52.408;12.536;2022-12-18T06:48:51;68.77;;;24.93;;
51664;SDS011;37751;52.408;12.536;2022-12-18T06:51:22;74.30;;;27.20;;
51664;SDS011;37751;52.408;12.536;2022-12-18T06:53:50;74.97;;;27.80;;
51664;SDS011;37751;52.408;12.536;2022-12-18T06:56:16;71.47;;;26.50;;
51664;SDS011;37751;52.408;12.536;2022-12-18T06:58:43;72.83;;;27.03;;
51664;SDS011;37751;52.408;12.536;2022-12-18T07:01:10;73.87;;;27.37;;
51664;SDS011;37751;52.408;12.536;2022-12-18T07:03:39;75.40;;;26.50;;
51664;SDS011;37751;52.408;12.536;2022-12-18T07:06:15;69.37;;;27.33;;
51664;SDS011;37751;52.408;12.536;2022-12-18T07:08:45;63.90;;;24.90;;
51664;SDS011;37751;52.408;12.536;2022-12-18T07:11:13;68.33;;;24.70;;
51664;SDS011;37751;52.408;12.536;2022-12-18T07:13:40;68.87;;;25.87;;
51664;SDS011;37751;52.408;12.536;2022-12-18T07:16:09;74.97;;;27.40;;
51664;SDS011;37751;52.408;12.536;2022-12-18T07:18:47;69.73;;;24.97;;
51664;SDS011;37751;52.408;12.536;2022-12-18T07:21:15;73.30;;;26.30;;
51664;SDS011;37751;52.408;12.536;2022-12-18T07:23:45;73.23;;;28.07;;
51664;SDS011;37751;52.408;12.536;2022-12-18T07:26:14;60.20;;;25.07;;
51664;SDS011;37751;52.408;12.536;2022-12-18T07:28:44;65.37;;;24.63;;
51664;SDS011;37751;52.408;12.536;2022-12-18T07:31:13;62.50;;;24.43;;
51664;SDS011;37751;52.408;12.536;2022-12-18T07:33:42;61.60;;;23.37;;
51664;SDS011;37751;52.408;12.536;2022-12-18T07:36:09;63.33;;;23.20;;
51664;SDS011;37751;52.408;12.536;2022-12-18T07:38:37;61.50;;;25.00;;
51664;SDS011;37751;52.408;12.536;2022-12-18T07:41:05;65.53;;;25.13;;
51664;SDS011;37751;52.408;12.536;2022-12-18T07:43:37;67.07;;;25.33;;
51664;SDS011;37751;52.408;12.536;2022-12-18T07:46:07;61.00;;;24.27;;
51664;SDS011;37751;52.408;12.536;2022-12-18T07:48:38;64.27;;;22.47;;
51664;SDS011;37751;52.408;12.536;2022-12-18T07:51:11;66.53;;;24.37;;
51664;SDS011;37751;52.408;12.536;2022-12-18T07:53:38;66.20;;;24.93;;
51664;SDS011;37751;52.408;12.536;2022-12-18T07:56:08;68.07;;;24.40;;
51664;SDS011;37751;52.408;12.536;2022-12-18T07:58:53;62.97;;;25.27;;
51664;SDS011;37751;52.408;12.536;2022-12-18T08:01:20;68.53;;;24.23;;
51664;SDS011;37751;52.408;12.536;2022-12-18T08:03:47;65.10;;;25.23;;
51664;SDS011;37751;52.408;12.536;2022-12-18T08:06:17;63.77;;;22.80;;
51664;SDS011;37751;52.408;12.536;2022-12-18T08:08:47;63.80;;;23.87;;
51664;SDS011;37751;52.408;12.536;2022-12-18T08:11:15;66.53;;;24.33;;
51664;SDS011;37751;52.408;12.536;2022-12-18T08:13:42;68.70;;;25.97;;
51664;SDS011;37751;52.408;12.536;2022-12-18T08:16:09;61.20;;;24.67;;
51664;SDS011;37751;52.408;12.536;2022-12-18T08:18:36;61.93;;;24.60;;
51664;SDS011;37751;52.408;12.536;2022-12-18T08:23:36;65.93;;;25.17;;
51664;SDS011;37751;52.408;12.536;2022-12-18T08:26:09;60.43;;;23.97;;
51664;SDS011;37751;52.408;12.536;2022-12-18T08:28:37;59.77;;;23.30;;
51664;SDS011;37751;52.408;12.536;2022-12-18T08:31:04;64.00;;;23.67;;
51664;SDS011;37751;52.408;12.536;2022-12-18T08:33:32;53.10;;;22.47;;
51664;SDS011;37751;52.408;12.536;2022-12-18T08:36:00;57.83;;;22.73;;
51664;SDS011;37751;52.408;12.536;2022-12-18T08:38:28;60.43;;;24.30;;
51664;SDS011;37751;52.408;12.536;2022-12-18T08:43:51;56.87;;;23.10;;
51664;SDS011;37751;52.408;12.536;2022-12-18T08:46:37;59.37;;;23.77;;
51664;SDS011;37751;52.408;12.536;2022-12-18T08:49:07;55.77;;;22.40;;
51664;SDS011;37751;52.408;12.536;2022-12-18T08:51:37;47.47;;;21.30;;
51664;SDS011;37751;52.408;12.536;2022-12-18T08:54:04;47.83;;;20.90;;
51664;SDS011;37751;52.408;12.536;2022-12-18T08:56:36;54.70;;;22.70;;
51664;SDS011;37751;52.408;12.536;2022-12-18T08:59:03;55.67;;;23.40;;
51664;SDS011;37751;52.408;12.536;2022-12-18T09:01:30;50.23;;;20.97;;
51664;SDS011;37751;52.408;12.536;2022-12-18T09:03:58;58.83;;;22.53;;
51664;SDS011;37751;52.408;12.536;2022-12-18T09:06:25;55.03;;;21.60;;
51664;SDS011;37751;52.408;12.536;2022-12-18T09:08:52;52.03;;;21.43;;
51664;SDS011;37751;52.408;12.536;2022-12-18T09:11:21;51.43;;;23.53;;
51664;SDS011;37751;52.408;12.536;2022-12-18T09:13:51;54.57;;;23.47;;
51664;SDS011;37751;52.408;12.536;2022-12-18T09:16:20;50.83;;;21.87;;
51664;SDS011;37751;52.408;12.536;2022-12-18T09:18:55;50.50;;;21.87;;
51664;SDS011;37751;52.408;12.536;2022-12-18T09:21:26;52.27;;;22.67;;
51664;SDS011;37751;52.408;12.536;2022-12-18T09:23:59;53.83;;;23.47;;
51664;SDS011;37751;52.408;12.536;2022-12-18T09:26:26;54.70;;;22.30;;
51664;SDS011;37751;52.408;12.536;2022-12-18T09:28:53;58.07;;;24.03;;
51664;SDS011;37751;52.408;12.536;2022-12-18T09:31:21;57.00;;;24.17;;
51664;SDS011;37751;52.408;12.536;2022-12-18T09:33:50;56.07;;;22.87;;
51664;SDS011;37751;52.408;12.536;2022-12-18T09:36:17;47.63;;;23.37;;
51664;SDS011;37751;52.408;12.536;2022-12-18T09:38:47;53.37;;;25.17;;
51664;SDS011;37751;52.408;12.536;2022-12-18T09:44:18;64.57;;;24.60;;
51664;SDS011;37751;52.408;12.536;2022-12-18T09:47:06;60.80;;;25.97;;
51664;SDS011;37751;52.408;12.536;2022-12-18T09:49:47;53.73;;;25.27;;
51664;SDS011;37751;52.408;12.536;2022-12-18T09:52:30;59.70;;;24.73;;
51664;SDS011;37751;52.408;12.536;2022-12-18T09:58:05;51.07;;;23.63;;
51664;SDS011;37751;52.408;12.536;2022-12-18T10:00:55;52.30;;;24.20;;
51664;SDS011;37751;52.408;12.536;2022-12-18T10:03:22;41.60;;;21.43;;
51664;SDS011;37751;52.408;12.536;2022-12-18T10:08:33;51.23;;;22.33;;
51664;SDS011;37751;52.408;12.536;2022-12-18T10:14:21;51.30;;;22.63;;
51664;SDS011;37751;52.408;12.536;2022-12-18T10:17:18;44.70;;;20.33;;
51664;SDS011;37751;52.408;12.536;2022-12-18T10:26:17;56.67;;;25.93;;
51664;SDS011;37751;52.408;12.536;2022-12-18T10:28:45;63.47;;;26.77;;
51664;SDS011;37751;52.408;12.536;2022-12-18T10:33:50;48.93;;;22.57;;
51664;SDS011;37751;52.408;12.536;2022-12-18T10:36:17;51.70;;;22.07;;
51664;SDS011;37751;52.408;12.536;2022-12-18T10:38:44;46.70;;;22.93;;
51664;SDS011;37751;52.408;12.536;2022-12-18T10:43:43;61.97;;;25.43;;
51664;SDS011;37751;52.408;12.536;2022-12-18T10:53:51;51.43;;;22.47;;
51664;SDS011;37751;52.408;12.536;2022-12-18T10:56:41;53.70;;;24.70;;
51664;SDS011;37751;52.408;12.536;2022-12-18T10:59:10;47.63;;;22.03;;
51664;SDS011;37751;52.408;12.536;2022-12-18T11:01:50;48.50;;;21.77;;
51664;SDS011;37751;52.408;12.536;2022-12-18T11:04:23;44.93;;;22.07;;
51664;SDS011;37751;52.408;12.536;2022-12-18T11:06:54;47.80;;;21.93;;
51664;SDS011;37751;52.408;12.536;2022-12-18T11:09:27;39.37;;;20.47;;
51664;SDS011;37751;52.408;12.536;2022-12-18T11:12:00;38.93;;;19.73;;
51664;SDS011;37751;52.408;12.536;2022-12-18T11:14:52;44.73;;;22.13;;
51664;SDS011;37751;52.408;12.536;2022-12-18T11:17:31;42.37;;;21.17;;
51664;SDS011;37751;52.408;12.536;2022-12-18T11:20:02;46.87;;;21.53;;
51664;SDS011;37751;52.408;12.536;2022-12-18T11:22:56;47.33;;;23.13;;
51664;SDS011;37751;52.408;12.536;2022-12-18T11:25:29;57.43;;;26.20;;
51664;SDS011;37751;52.408;12.536;2022-12-18T11:28:02;46.60;;;21.30;;
51664;SDS011;37751;52.408;12.536;2022-12-18T11:34:11;43.87;;;21.23;;
51664;SDS011;37751;52.408;12.536;2022-12-18T11:36:55;41.23;;;19.80;;
51664;SDS011;37751;52.408;12.536;2022-12-18T11:47:41;47.83;;;20.50;;
51664;SDS011;37751;52.408;12.536;2022-12-18T11:53:02;44.53;;;19.20;;
51664;SDS011;37751;52.408;12.536;2022-12-18T11:55:47;38.60;;;18.40;;
51664;SDS011;37751;52.408;12.536;2022-12-18T11:58:28;40.23;;;19.57;;
51664;SDS011;37751;52.408;12.536;2022-12-18T12:04:31;39.23;;;19.20;;
51664;SDS011;37751;52.408;12.536;2022-12-18T12:07:24;44.50;;;19.83;;
51664;SDS011;37751;52.408;12.536;2022-12-18T12:20:09;37.20;;;18.33;;
51664;SDS011;37751;52.408;12.536;2022-12-18T12:26:06;45.73;;;21.33;;
51664;SDS011;37751;52.408;12.536;2022-12-18T12:38:44;40.80;;;18.57;;
51664;SDS011;37751;52.408;12.536;2022-12-18T12:41:23;36.37;;;17.87;;
51664;SDS011;37751;52.408;12.536;2022-12-18T12:44:22;41.03;;;19.20;;
51664;SDS011;37751;52.408;12.536;2022-12-18T12:47:00;39.50;;;18.97;;
51664;SDS011;37751;52.408;12.536;2022-12-18T12:49:41;45.97;;;21.43;;
51664;SDS011;37751;52.408;12.536;2022-12-18T12:52:54;45.50;;;21.53;;
51664;SDS011;37751;52.408;12.536;2022-12-18T12:55:35;39.53;;;19.80;;
51664;SDS011;37751;52.408;12.536;2022-12-18T12:58:26;42.53;;;19.73;;
51664;SDS011;37751;52.408;12.536;2022-12-18T13:04:49;41.60;;;19.53;;
51664;SDS011;37751;52.408;12.536;2022-12-18T13:07:54;44.63;;;18.60;;
51664;SDS011;37751;52.408;12.536;2022-12-18T13:10:45;43.07;;;20.60;;
51664;SDS011;37751;52.408;12.536;2022-12-18T13:13:18;40.67;;;19.57;;
51664;SDS011;37751;52.408;12.536;2022-12-18T13:16:05;46.80;;;20.60;;
51664;SDS011;37751;52.408;12.536;2022-12-18T13:18:48;43.43;;;19.57;;
51664;SDS011;37751;52.408;12.536;2022-12-18T13:25:34;43.07;;;19.47;;
51664;SDS011;37751;52.408;12.536;2022-12-18T13:28:16;43.93;;;20.23;;
51664;SDS011;37751;52.408;12.536;2022-12-18T13:34:22;40.17;;;19.83;;
51664;SDS011;37751;52.408;12.536;2022-12-18T13:46:06;45.43;;;20.43;;
51664;SDS011;37751;52.408;12.536;2022-12-18T13:48:52;39.17;;;18.73;;
51664;SDS011;37751;52.408;12.536;2022-12-18T13:51:33;43.27;;;19.47;;
51664;SDS011;37751;52.408;12.536;2022-12-18T13:54:03;41.10;;;20.80;;
51664;SDS011;37751;52.408;12.536;2022-12-18T13:56:55;43.20;;;20.57;;
51664;SDS011;37751;52.408;12.536;2022-12-18T13:59:24;43.00;;;20.77;;
51664;SDS011;37751;52.408;12.536;2022-12-18T14:02:21;43.70;;;20.77;;
51664;SDS011;37751;52.408;12.536;2022-12-18T14:04:54;39.83;;;19.10;;
51664;SDS011;37751;52.408;12.536;2022-12-18T14:07:22;46.43;;;21.13;;
51664;SDS011;37751;52.408;12.536;2022-12-18T14:09:56;36.77;;;18.90;;
51664;SDS011;37751;52.408;12.536;2022-12-18T14:12:49;45.70;;;20.13;;
51664;SDS011;37751;52.408;12.536;2022-12-18T14:17:54;43.07;;;20.87;;
51664;SDS011;37751;52.408;12.536;2022-12-18T14:20:25;47.07;;;20.70;;
51664;SDS011;37751;52.408;12.536;2022-12-18T14:22:58;42.10;;;20.73;;
51664;SDS011;37751;52.408;12.536;2022-12-18T14:25:27;42.23;;;18.87;;
51664;SDS011;37751;52.408;12.536;2022-12-18T14:30:40;37.67;;;19.63;;
51664;SDS011;37751;52.408;12.536;2022-12-18T14:33:13;44.90;;;20.93;;
51664;SDS011;37751;52.408;12.536;2022-12-18T14:35:58;41.87;;;19.50;;
51664;SDS011;37751;52.408;12.536;2022-12-18T14:41:02;43.23;;;21.77;;
51664;SDS011;37751;52.408;12.536;2022-12-18T14:43:34;42.73;;;21.90;;
51664;SDS011;37751;52.408;12.536;2022-12-18T14:46:05;46.97;;;22.67;;
51664;SDS011;37751;52.408;12.536;2022-12-18T14:49:03;52.03;;;21.80;;
51664;SDS011;37751;52.408;12.536;2022-12-18T14:52:03;46.00;;;22.33;;
51664;SDS011;37751;52.408;12.536;2022-12-18T14:54:33;45.00;;;21.07;;
51664;SDS011;37751;52.408;12.536;2022-12-18T14:59:51;48.17;;;20.80;;
51664;SDS011;37751;52.408;12.536;2022-12-18T15:02:22;41.30;;;21.20;;
51664;SDS011;37751;52.408;12.536;2022-12-18T15:05:27;44.23;;;21.87;;
51664;SDS011;37751;52.408;12.536;2022-12-18T15:07:52;45.77;;;19.57;;
51664;SDS011;37751;52.408;12.536;2022-12-18T15:20:52;42.20;;;18.83;;
51664;SDS011;37751;52.408;12.536;2022-12-18T15:25:57;46.37;;;21.00;;
51664;SDS011;37751;52.408;12.536;2022-12-18T15:28:37;41.60;;;19.60;;
51664;SDS011;37751;52.408;12.536;2022-12-18T15:31:29;40.13;;;21.10;;
51664;SDS011;37751;52.408;12.536;2022-12-18T15:34:05;38.70;;;20.27;;
51664;SDS011;37751;52.408;12.536;2022-12-18T15:36:38;39.43;;;19.47;;
51664;SDS011;37751;52.408;12.536;2022-12-18T15:39:06;46.27;;;22.47;;
51664;SDS011;37751;52.408;12.536;2022-12-18T15:41:33;50.00;;;22.30;;
51664;SDS011;37751;52.408;12.536;2022-12-18T15:44:01;48.87;;;21.20;;
51664;SDS011;37751;52.408;12.536;2022-12-18T15:46:43;42.40;;;19.93;;
51664;SDS011;37751;52.408;12.536;2022-12-18T15:49:10;44.67;;;21.17;;
51664;SDS011;37751;52.408;12.536;2022-12-18T15:51:37;46.53;;;21.73;;
51664;SDS011;37751;52.408;12.536;2022-12-18T15:54:05;37.77;;;18.63;;
51664;SDS011;37751;52.408;12.536;2022-12-18T15:56:39;41.77;;;19.93;;
51664;SDS011;37751;52.408;12.536;2022-12-18T15:59:25;39.13;;;19.60;;
51664;SDS011;37751;52.408;12.536;2022-12-18T16:01:52;40.93;;;19.67;;
51664;SDS011;37751;52.408;12.536;2022-12-18T16:04:20;45.70;;;21.43;;
51664;SDS011;37751;52.408;12.536;2022-12-18T16:06:48;41.93;;;19.80;;
51664;SDS011;37751;52.408;12.536;2022-12-18T16:09:36;45.50;;;19.33;;
51664;SDS011;37751;52.408;12.536;2022-12-18T16:12:03;42.50;;;19.37;;
51664;SDS011;37751;52.408;12.536;2022-12-18T16:14:30;41.17;;;19.03;;
51664;SDS011;37751;52.408;12.536;2022-12-18T16:16:59;44.70;;;20.33;;
51664;SDS011;37751;52.408;12.536;2022-12-18T16:19:29;43.17;;;20.07;;
51664;SDS011;37751;52.408;12.536;2022-12-18T16:21:57;41.03;;;20.27;;
51664;SDS011;37751;52.408;12.536;2022-12-18T16:24:26;43.07;;;21.10;;
51664;SDS011;37751;52.408;12.536;2022-12-18T16:26:56;39.33;;;18.93;;
51664;SDS011;37751;52.408;12.536;2022-12-18T16:29:26;42.07;;;19.83;;
51664;SDS011;37751;52.408;12.536;2022-12-18T16:31:54;47.87;;;20.80;;
51664;SDS011;37751;52.408;12.536;2022-12-18T16:34:29;45.23;;;20.90;;
51664;SDS011;37751;52.408;12.536;2022-12-18T16:37:02;46.37;;;20.67;;
51664;SDS011;37751;52.408;12.536;2022-12-18T16:39:35;43.17;;;21.13;;
51664;SDS011;37751;52.408;12.536;2022-12-18T16:42:04;46.30;;;20.00;;
51664;SDS011;37751;52.408;12.536;2022-12-18T16:44:46;45.20;;;20.63;;
51664;SDS011;37751;52.408;12.536;2022-12-18T16:47:14;44.53;;;20.33;;
51664;SDS011;37751;52.408;12.536;2022-12-18T16:49:42;47.73;;;22.00;;
51664;SDS011;37751;52.408;12.536;2022-12-18T16:52:11;49.90;;;22.13;;
51664;SDS011;37751;52.408;12.536;2022-12-18T16:54:38;46.27;;;21.43;;
51664;SDS011;37751;52.408;12.536;2022-12-18T16:57:05;50.57;;;23.57;;
51664;SDS011;37751;52.408;12.536;2022-12-18T16:59:32;52.57;;;22.90;;
51664;SDS011;37751;52.408;12.536;2022-12-18T17:02:01;49.77;;;23.00;;
51664;SDS011;37751;52.408;12.536;2022-12-18T17:04:28;49.90;;;23.00;;
51664;SDS011;37751;52.408;12.536;2022-12-18T17:06:55;53.17;;;23.47;;
51664;SDS011;37751;52.408;12.536;2022-12-18T17:09:22;42.33;;;20.53;;
51664;SDS011;37751;52.408;12.536;2022-12-18T17:11:52;50.23;;;21.97;;
51664;SDS011;37751;52.408;12.536;2022-12-18T17:14:20;49.10;;;22.50;;
51664;SDS011;37751;52.408;12.536;2022-12-18T17:16:50;48.63;;;22.97;;